sensor_id;sensor_type;location;lat;lon;timestamp;P1;durP1;ratioP1;P2;durP2;ratioP2
84849;SDS011;75096;49.576;11.024;2024-02-04T00:00:38;4.47;;;1.95;;
84849;SDS011;75096;49.576;11.024;2024-02-04T00:01:40;4.00;;;2.13;;
84849;SDS011;75096;49.576;11.024;2024-02-04T00:02:41;3.97;;;1.92;;
84849;SDS011;75096;49.576;11.024;2024-02-04T00:03:43;4.07;;;2.13;;
84849;SDS011;75096;49.576;11.024;2024-02-04T00:04:45;3.53;;;2.00;;
84849;SDS011;75096;49.576;11.024;2024-02-04T00:05:47;4.32;;;2.33;;
84849;SDS011;75096;49.576;11.024;2024-02-04T00:06:49;2.97;;;1.80;;
84849;SDS011;75096;49.576;11.024;2024-02-04T00:07:51;3.63;;;2.38;;
84849;SDS011;75096;49.576;11.024;2024-02-04T00:08:52;3.35;;;1.98;;
84849;SDS011;75096;49.576;11.024;2024-02-04T00:09:55;3.53;;;1.95;;
84849;SDS011;75096;49.576;11.024;2024-02-04T00:10:57;3.40;;;2.00;;
84849;SDS011;75096;49.576;11.024;2024-02-04T00:11:59;3.88;;;2.25;;
84849;SDS011;75096;49.576;11.024;2024-02-04T00:13:15;3.28;;;2.15;;
84849;SDS011;75096;49.576;11.024;2024-02-04T00:14:18;3.50;;;2.13;;
84849;SDS011;75096;49.576;11.024;2024-02-04T00:15:21;4.18;;;2.10;;
84849;SDS011;75096;49.576;11.024;2024-02-04T00:16:24;3.22;;;2.15;;
84849;SDS011;75096;49.576;11.024;2024-02-04T00:17:33;3.47;;;2.10;;
84849;SDS011;75096;49.576;11.024;2024-02-04T00:18:35;2.90;;;1.80;;
84849;SDS011;75096;49.576;11.024;2024-02-04T00:19:38;4.00;;;1.95;;
84849;SDS011;75096;49.576;11.024;2024-02-04T00:20:44;3.08;;;1.80;;
84849;SDS011;75096;49.576;11.024;2024-02-04T00:21:50;3.17;;;1.80;;
84849;SDS011;75096;49.576;11.024;2024-02-04T00:24:21;3.72;;;1.90;;
84849;SDS011;75096;49.576;11.024;2024-02-04T00:25:29;3.22;;;1.63;;
84849;SDS011;75096;49.576;11.024;2024-02-04T00:26:36;3.95;;;1.90;;
84849;SDS011;75096;49.576;11.024;2024-02-04T00:27:41;2.60;;;1.80;;
84849;SDS011;75096;49.576;11.024;2024-02-04T00:28:46;3.83;;;1.80;;
84849;SDS011;75096;49.576;11.024;2024-02-04T00:29:51;2.97;;;1.90;;
84849;SDS011;75096;49.576;11.024;2024-02-04T00:30:57;3.70;;;1.48;;
84849;SDS011;75096;49.576;11.024;2024-02-04T00:32:13;3.47;;;2.05;;
84849;SDS011;75096;49.576;11.024;2024-02-04T00:33:35;3.40;;;1.67;;
84849;SDS011;75096;49.576;11.024;2024-02-04T00:34:44;3.60;;;2.08;;
84849;SDS011;75096;49.576;11.024;2024-02-04T00:35:54;3.47;;;1.80;;
84849;SDS011;75096;49.576;11.024;2024-02-04T00:37:15;3.97;;;2.28;;
84849;SDS011;75096;49.576;11.024;2024-02-04T00:38:27;3.15;;;1.90;;
84849;SDS011;75096;49.576;11.024;2024-02-04T00:39:34;3.15;;;1.92;;
84849;SDS011;75096;49.576;11.024;2024-02-04T00:40:40;2.90;;;1.92;;
84849;SDS011;75096;49.576;11.024;2024-02-04T00:41:42;2.42;;;1.60;;
84849;SDS011;75096;49.576;11.024;2024-02-04T00:42:44;3.38;;;1.90;;
84849;SDS011;75096;49.576;11.024;2024-02-04T00:43:50;3.47;;;1.92;;
84849;SDS011;75096;49.576;11.024;2024-02-04T00:44:54;5.97;;;3.45;;
84849;SDS011;75096;49.576;11.024;2024-02-04T00:45:56;3.30;;;2.10;;
84849;SDS011;75096;49.576;11.024;2024-02-04T00:46:58;3.05;;;1.77;;
84849;SDS011;75096;49.576;11.024;2024-02-04T00:48:00;4.13;;;2.05;;
84849;SDS011;75096;49.576;11.024;2024-02-04T00:49:01;4.35;;;2.05;;
84849;SDS011;75096;49.576;11.024;2024-02-04T00:50:03;2.88;;;1.85;;
84849;SDS011;75096;49.576;11.024;2024-02-04T00:51:06;3.40;;;1.85;;
84849;SDS011;75096;49.576;11.024;2024-02-04T00:52:08;2.83;;;1.77;;
84849;SDS011;75096;49.576;11.024;2024-02-04T00:53:09;2.83;;;1.85;;
84849;SDS011;75096;49.576;11.024;2024-02-04T00:54:11;4.13;;;1.52;;
84849;SDS011;75096;49.576;11.024;2024-02-04T00:55:13;2.80;;;1.42;;
84849;SDS011;75096;49.576;11.024;2024-02-04T00:56:14;3.03;;;2.13;;
84849;SDS011;75096;49.576;11.024;2024-02-04T00:57:16;3.85;;;1.60;;
84849;SDS011;75096;49.576;11.024;2024-02-04T00:58:18;3.97;;;1.60;;
84849;SDS011;75096;49.576;11.024;2024-02-04T00:59:19;3.05;;;1.73;;
84849;SDS011;75096;49.576;11.024;2024-02-04T01:00:21;3.40;;;1.70;;
84849;SDS011;75096;49.576;11.024;2024-02-04T01:01:22;3.40;;;1.67;;
84849;SDS011;75096;49.576;11.024;2024-02-04T01:02:25;3.67;;;1.83;;
84849;SDS011;75096;49.576;11.024;2024-02-04T01:03:26;2.92;;;1.77;;
84849;SDS011;75096;49.576;11.024;2024-02-04T01:05:44;2.83;;;1.73;;
84849;SDS011;75096;49.576;11.024;2024-02-04T01:07:20;2.58;;;1.30;;
84849;SDS011;75096;49.576;11.024;2024-02-04T01:09:03;2.30;;;1.58;;
84849;SDS011;75096;49.576;11.024;2024-02-04T01:10:27;2.85;;;1.60;;
84849;SDS011;75096;49.576;11.024;2024-02-04T01:13:58;2.70;;;1.55;;
84849;SDS011;75096;49.576;11.024;2024-02-04T01:15:14;2.72;;;1.70;;
84849;SDS011;75096;49.576;11.024;2024-02-04T01:18:25;3.88;;;1.67;;
84849;SDS011;75096;49.576;11.024;2024-02-04T01:19:26;2.47;;;1.63;;
84849;SDS011;75096;49.576;11.024;2024-02-04T01:20:28;3.35;;;1.40;;
84849;SDS011;75096;49.576;11.024;2024-02-04T01:21:30;2.70;;;1.80;;
84849;SDS011;75096;49.576;11.024;2024-02-04T01:22:31;2.75;;;1.70;;
84849;SDS011;75096;49.576;11.024;2024-02-04T01:23:33;2.78;;;1.88;;
84849;SDS011;75096;49.576;11.024;2024-02-04T01:24:35;4.07;;;1.42;;
84849;SDS011;75096;49.576;11.024;2024-02-04T01:25:37;1.90;;;1.30;;
84849;SDS011;75096;49.576;11.024;2024-02-04T01:26:42;3.40;;;1.67;;
84849;SDS011;75096;49.576;11.024;2024-02-04T01:27:44;2.70;;;1.70;;
84849;SDS011;75096;49.576;11.024;2024-02-04T01:28:46;2.05;;;1.40;;
84849;SDS011;75096;49.576;11.024;2024-02-04T01:29:47;2.45;;;1.42;;
84849;SDS011;75096;49.576;11.024;2024-02-04T01:30:49;2.05;;;1.27;;
84849;SDS011;75096;49.576;11.024;2024-02-04T01:31:51;2.72;;;1.77;;
84849;SDS011;75096;49.576;11.024;2024-02-04T01:32:52;2.25;;;1.38;;
84849;SDS011;75096;49.576;11.024;2024-02-04T01:33:54;2.05;;;1.35;;
84849;SDS011;75096;49.576;11.024;2024-02-04T01:34:56;9.52;;;3.63;;
84849;SDS011;75096;49.576;11.024;2024-02-04T01:35:58;3.53;;;1.73;;
84849;SDS011;75096;49.576;11.024;2024-02-04T01:37:00;3.10;;;1.50;;
84849;SDS011;75096;49.576;11.024;2024-02-04T01:38:01;1.92;;;1.33;;
84849;SDS011;75096;49.576;11.024;2024-02-04T01:39:03;1.98;;;1.30;;
84849;SDS011;75096;49.576;11.024;2024-02-04T01:40:06;1.85;;;1.13;;
84849;SDS011;75096;49.576;11.024;2024-02-04T01:41:08;2.45;;;1.50;;
84849;SDS011;75096;49.576;11.024;2024-02-04T01:42:10;2.60;;;1.40;;
84849;SDS011;75096;49.576;11.024;2024-02-04T01:43:11;2.53;;;1.35;;
84849;SDS011;75096;49.576;11.024;2024-02-04T01:44:13;2.22;;;1.40;;
84849;SDS011;75096;49.576;11.024;2024-02-04T01:45:17;2.33;;;1.40;;
84849;SDS011;75096;49.576;11.024;2024-02-04T01:46:18;2.15;;;1.38;;
84849;SDS011;75096;49.576;11.024;2024-02-04T01:47:20;2.10;;;1.40;;
84849;SDS011;75096;49.576;11.024;2024-02-04T01:48:22;1.77;;;1.27;;
84849;SDS011;75096;49.576;11.024;2024-02-04T01:49:24;2.28;;;1.23;;
84849;SDS011;75096;49.576;11.024;2024-02-04T01:50:27;2.13;;;1.30;;
84849;SDS011;75096;49.576;11.024;2024-02-04T01:51:28;1.80;;;1.30;;
84849;SDS011;75096;49.576;11.024;2024-02-04T01:52:31;2.40;;;1.38;;
84849;SDS011;75096;49.576;11.024;2024-02-04T01:53:34;2.40;;;1.30;;
84849;SDS011;75096;49.576;11.024;2024-02-04T01:54:36;2.40;;;1.42;;
84849;SDS011;75096;49.576;11.024;2024-02-04T01:55:39;2.40;;;1.30;;
84849;SDS011;75096;49.576;11.024;2024-02-04T01:56:41;2.03;;;1.13;;
84849;SDS011;75096;49.576;11.024;2024-02-04T01:57:43;1.90;;;1.17;;
84849;SDS011;75096;49.576;11.024;2024-02-04T01:58:45;2.10;;;0.98;;
84849;SDS011;75096;49.576;11.024;2024-02-04T01:59:47;2.30;;;1.40;;
84849;SDS011;75096;49.576;11.024;2024-02-04T02:00:50;2.53;;;1.40;;
84849;SDS011;75096;49.576;11.024;2024-02-04T02:01:52;1.77;;;0.90;;
84849;SDS011;75096;49.576;11.024;2024-02-04T02:02:54;2.42;;;1.38;;
84849;SDS011;75096;49.576;11.024;2024-02-04T02:03:56;3.05;;;1.23;;
84849;SDS011;75096;49.576;11.024;2024-02-04T02:04:59;1.60;;;0.90;;
84849;SDS011;75096;49.576;11.024;2024-02-04T02:06:01;2.30;;;1.20;;
84849;SDS011;75096;49.576;11.024;2024-02-04T02:07:02;3.22;;;1.30;;
84849;SDS011;75096;49.576;11.024;2024-02-04T02:08:06;2.20;;;1.33;;
84849;SDS011;75096;49.576;11.024;2024-02-04T02:09:08;2.38;;;1.45;;
84849;SDS011;75096;49.576;11.024;2024-02-04T02:10:14;3.28;;;1.52;;
84849;SDS011;75096;49.576;11.024;2024-02-04T02:11:24;2.33;;;1.35;;
84849;SDS011;75096;49.576;11.024;2024-02-04T02:12:30;3.28;;;1.35;;
84849;SDS011;75096;49.576;11.024;2024-02-04T02:13:40;2.42;;;1.38;;
84849;SDS011;75096;49.576;11.024;2024-02-04T02:14:44;2.20;;;1.40;;
84849;SDS011;75096;49.576;11.024;2024-02-04T02:15:48;2.75;;;1.55;;
84849;SDS011;75096;49.576;11.024;2024-02-04T02:16:54;1.98;;;1.40;;
84849;SDS011;75096;49.576;11.024;2024-02-04T02:17:58;2.78;;;1.48;;
84849;SDS011;75096;49.576;11.024;2024-02-04T02:21:52;2.58;;;1.48;;
84849;SDS011;75096;49.576;11.024;2024-02-04T02:23:10;5.05;;;1.70;;
84849;SDS011;75096;49.576;11.024;2024-02-04T02:25:24;3.17;;;1.52;;
84849;SDS011;75096;49.576;11.024;2024-02-04T02:26:26;2.42;;;1.52;;
84849;SDS011;75096;49.576;11.024;2024-02-04T02:27:28;2.55;;;1.42;;
84849;SDS011;75096;49.576;11.024;2024-02-04T02:28:29;3.08;;;1.95;;
84849;SDS011;75096;49.576;11.024;2024-02-04T02:29:31;2.50;;;1.60;;
84849;SDS011;75096;49.576;11.024;2024-02-04T02:30:37;2.45;;;1.35;;
84849;SDS011;75096;49.576;11.024;2024-02-04T02:31:39;2.50;;;1.50;;
84849;SDS011;75096;49.576;11.024;2024-02-04T02:32:49;2.92;;;1.50;;
84849;SDS011;75096;49.576;11.024;2024-02-04T02:33:51;3.00;;;1.40;;
84849;SDS011;75096;49.576;11.024;2024-02-04T02:34:53;2.80;;;1.70;;
84849;SDS011;75096;49.576;11.024;2024-02-04T02:35:56;3.30;;;1.60;;
84849;SDS011;75096;49.576;11.024;2024-02-04T02:38:15;3.53;;;1.75;;
84849;SDS011;75096;49.576;11.024;2024-02-04T02:39:34;2.85;;;1.52;;
84849;SDS011;75096;49.576;11.024;2024-02-04T02:40:46;2.33;;;1.50;;
84849;SDS011;75096;49.576;11.024;2024-02-04T02:41:55;2.17;;;1.52;;
84849;SDS011;75096;49.576;11.024;2024-02-04T02:42:58;3.35;;;1.70;;
84849;SDS011;75096;49.576;11.024;2024-02-04T02:44:03;3.15;;;1.63;;
84849;SDS011;75096;49.576;11.024;2024-02-04T02:45:06;2.55;;;1.35;;
84849;SDS011;75096;49.576;11.024;2024-02-04T02:46:08;2.60;;;1.45;;
84849;SDS011;75096;49.576;11.024;2024-02-04T02:47:10;2.53;;;1.50;;
84849;SDS011;75096;49.576;11.024;2024-02-04T02:48:12;2.83;;;1.90;;
84849;SDS011;75096;49.576;11.024;2024-02-04T02:49:14;2.90;;;1.63;;
84849;SDS011;75096;49.576;11.024;2024-02-04T02:50:16;2.92;;;1.63;;
84849;SDS011;75096;49.576;11.024;2024-02-04T02:51:18;3.13;;;1.70;;
84849;SDS011;75096;49.576;11.024;2024-02-04T02:52:20;2.78;;;1.60;;
84849;SDS011;75096;49.576;11.024;2024-02-04T02:53:22;2.63;;;1.60;;
84849;SDS011;75096;49.576;11.024;2024-02-04T02:54:24;2.72;;;1.48;;
84849;SDS011;75096;49.576;11.024;2024-02-04T02:55:26;3.42;;;1.80;;
84849;SDS011;75096;49.576;11.024;2024-02-04T02:56:27;3.00;;;1.40;;
84849;SDS011;75096;49.576;11.024;2024-02-04T02:57:29;3.05;;;1.60;;
84849;SDS011;75096;49.576;11.024;2024-02-04T02:58:30;3.22;;;1.58;;
84849;SDS011;75096;49.576;11.024;2024-02-04T02:59:33;2.30;;;1.40;;
84849;SDS011;75096;49.576;11.024;2024-02-04T03:00:35;2.95;;;1.73;;
84849;SDS011;75096;49.576;11.024;2024-02-04T03:01:40;2.55;;;1.45;;
84849;SDS011;75096;49.576;11.024;2024-02-04T03:02:42;3.40;;;1.85;;
84849;SDS011;75096;49.576;11.024;2024-02-04T03:03:44;3.42;;;1.77;;
84849;SDS011;75096;49.576;11.024;2024-02-04T03:04:45;3.53;;;1.70;;
84849;SDS011;75096;49.576;11.024;2024-02-04T03:05:47;4.15;;;1.80;;
84849;SDS011;75096;49.576;11.024;2024-02-04T03:06:49;2.83;;;1.63;;
84849;SDS011;75096;49.576;11.024;2024-02-04T03:07:51;2.90;;;1.80;;
84849;SDS011;75096;49.576;11.024;2024-02-04T03:08:52;3.00;;;1.70;;
84849;SDS011;75096;49.576;11.024;2024-02-04T03:09:54;3.28;;;1.83;;
84849;SDS011;75096;49.576;11.024;2024-02-04T03:10:56;3.10;;;1.60;;
84849;SDS011;75096;49.576;11.024;2024-02-04T03:11:57;3.17;;;2.05;;
84849;SDS011;75096;49.576;11.024;2024-02-04T03:12:59;4.45;;;2.10;;
84849;SDS011;75096;49.576;11.024;2024-02-04T03:14:02;3.35;;;2.00;;
84849;SDS011;75096;49.576;11.024;2024-02-04T03:15:04;4.25;;;2.10;;
84849;SDS011;75096;49.576;11.024;2024-02-04T03:16:10;3.92;;;2.25;;
84849;SDS011;75096;49.576;11.024;2024-02-04T03:17:12;4.32;;;1.90;;
84849;SDS011;75096;49.576;11.024;2024-02-04T03:18:14;4.13;;;1.60;;
84849;SDS011;75096;49.576;11.024;2024-02-04T03:19:16;5.25;;;2.70;;
84849;SDS011;75096;49.576;11.024;2024-02-04T03:20:18;3.85;;;2.10;;
84849;SDS011;75096;49.576;11.024;2024-02-04T03:21:19;3.30;;;1.88;;
84849;SDS011;75096;49.576;11.024;2024-02-04T03:22:21;4.00;;;2.10;;
84849;SDS011;75096;49.576;11.024;2024-02-04T03:23:23;3.88;;;2.00;;
84849;SDS011;75096;49.576;11.024;2024-02-04T03:24:24;3.92;;;2.20;;
84849;SDS011;75096;49.576;11.024;2024-02-04T03:25:26;3.72;;;1.92;;
84849;SDS011;75096;49.576;11.024;2024-02-04T03:26:29;4.18;;;2.28;;
84849;SDS011;75096;49.576;11.024;2024-02-04T03:27:31;4.30;;;2.45;;
84849;SDS011;75096;49.576;11.024;2024-02-04T03:28:33;3.83;;;2.20;;
84849;SDS011;75096;49.576;11.024;2024-02-04T03:29:35;3.78;;;2.22;;
84849;SDS011;75096;49.576;11.024;2024-02-04T03:30:36;3.97;;;2.17;;
84849;SDS011;75096;49.576;11.024;2024-02-04T03:31:38;4.25;;;2.20;;
84849;SDS011;75096;49.576;11.024;2024-02-04T03:32:40;4.07;;;2.00;;
84849;SDS011;75096;49.576;11.024;2024-02-04T03:33:41;4.20;;;2.42;;
84849;SDS011;75096;49.576;11.024;2024-02-04T03:34:43;3.90;;;2.25;;
84849;SDS011;75096;49.576;11.024;2024-02-04T03:35:45;3.92;;;2.13;;
84849;SDS011;75096;49.576;11.024;2024-02-04T03:36:47;3.95;;;2.40;;
84849;SDS011;75096;49.576;11.024;2024-02-04T03:37:49;3.70;;;2.20;;
84849;SDS011;75096;49.576;11.024;2024-02-04T03:38:50;4.00;;;2.30;;
84849;SDS011;75096;49.576;11.024;2024-02-04T03:39:52;3.50;;;2.20;;
84849;SDS011;75096;49.576;11.024;2024-02-04T03:40:54;4.28;;;2.40;;
84849;SDS011;75096;49.576;11.024;2024-02-04T03:41:56;4.30;;;2.92;;
84849;SDS011;75096;49.576;11.024;2024-02-04T03:42:57;5.35;;;2.40;;
84849;SDS011;75096;49.576;11.024;2024-02-04T03:43:59;4.38;;;2.22;;
84849;SDS011;75096;49.576;11.024;2024-02-04T03:45:01;3.83;;;2.05;;
84849;SDS011;75096;49.576;11.024;2024-02-04T03:46:04;4.50;;;2.33;;
84849;SDS011;75096;49.576;11.024;2024-02-04T03:47:06;5.38;;;2.50;;
84849;SDS011;75096;49.576;11.024;2024-02-04T03:48:08;4.00;;;2.50;;
84849;SDS011;75096;49.576;11.024;2024-02-04T03:49:09;4.63;;;2.47;;
84849;SDS011;75096;49.576;11.024;2024-02-04T03:50:11;4.10;;;2.00;;
84849;SDS011;75096;49.576;11.024;2024-02-04T03:51:16;3.78;;;2.53;;
84849;SDS011;75096;49.576;11.024;2024-02-04T03:52:18;3.90;;;2.38;;
84849;SDS011;75096;49.576;11.024;2024-02-04T03:53:20;4.07;;;2.47;;
84849;SDS011;75096;49.576;11.024;2024-02-04T03:54:24;4.15;;;2.13;;
84849;SDS011;75096;49.576;11.024;2024-02-04T03:55:25;3.97;;;2.22;;
84849;SDS011;75096;49.576;11.024;2024-02-04T03:56:28;5.72;;;2.58;;
84849;SDS011;75096;49.576;11.024;2024-02-04T03:57:29;4.45;;;2.40;;
84849;SDS011;75096;49.576;11.024;2024-02-04T03:58:32;4.20;;;2.33;;
84849;SDS011;75096;49.576;11.024;2024-02-04T04:00:35;3.97;;;2.35;;
84849;SDS011;75096;49.576;11.024;2024-02-04T04:01:37;4.35;;;2.15;;
84849;SDS011;75096;49.576;11.024;2024-02-04T04:02:39;5.00;;;2.95;;
84849;SDS011;75096;49.576;11.024;2024-02-04T04:03:42;5.57;;;2.75;;
84849;SDS011;75096;49.576;11.024;2024-02-04T04:04:44;4.43;;;2.63;;
84849;SDS011;75096;49.576;11.024;2024-02-04T04:05:49;4.95;;;2.90;;
84849;SDS011;75096;49.576;11.024;2024-02-04T04:06:51;4.63;;;2.75;;
84849;SDS011;75096;49.576;11.024;2024-02-04T04:07:52;5.35;;;2.88;;
84849;SDS011;75096;49.576;11.024;2024-02-04T04:08:54;5.07;;;2.97;;
84849;SDS011;75096;49.576;11.024;2024-02-04T04:09:56;5.38;;;2.78;;
84849;SDS011;75096;49.576;11.024;2024-02-04T04:10:57;5.28;;;3.05;;
84849;SDS011;75096;49.576;11.024;2024-02-04T04:11:59;4.72;;;2.63;;
84849;SDS011;75096;49.576;11.024;2024-02-04T04:13:01;4.90;;;2.78;;
84849;SDS011;75096;49.576;11.024;2024-02-04T04:14:02;4.85;;;2.83;;
84849;SDS011;75096;49.576;11.024;2024-02-04T04:15:04;6.00;;;3.00;;
84849;SDS011;75096;49.576;11.024;2024-02-04T04:16:07;5.45;;;2.85;;
84849;SDS011;75096;49.576;11.024;2024-02-04T04:17:09;5.20;;;3.33;;
84849;SDS011;75096;49.576;11.024;2024-02-04T04:18:10;4.55;;;2.83;;
84849;SDS011;75096;49.576;11.024;2024-02-04T04:19:14;4.93;;;3.05;;
84849;SDS011;75096;49.576;11.024;2024-02-04T04:20:16;5.78;;;3.05;;
84849;SDS011;75096;49.576;11.024;2024-02-04T04:21:18;4.78;;;2.83;;
84849;SDS011;75096;49.576;11.024;2024-02-04T04:22:19;4.72;;;2.90;;
84849;SDS011;75096;49.576;11.024;2024-02-04T04:23:21;5.10;;;3.03;;
84849;SDS011;75096;49.576;11.024;2024-02-04T04:24:23;5.03;;;2.90;;
84849;SDS011;75096;49.576;11.024;2024-02-04T04:25:24;4.68;;;2.72;;
84849;SDS011;75096;49.576;11.024;2024-02-04T04:26:26;4.95;;;3.08;;
84849;SDS011;75096;49.576;11.024;2024-02-04T04:27:28;5.70;;;3.35;;
84849;SDS011;75096;49.576;11.024;2024-02-04T04:28:30;4.03;;;2.22;;
84849;SDS011;75096;49.576;11.024;2024-02-04T04:29:31;4.75;;;2.90;;
84849;SDS011;75096;49.576;11.024;2024-02-04T04:30:33;4.10;;;2.40;;
84849;SDS011;75096;49.576;11.024;2024-02-04T04:31:35;5.65;;;2.60;;
84849;SDS011;75096;49.576;11.024;2024-02-04T04:32:37;4.55;;;2.65;;
84849;SDS011;75096;49.576;11.024;2024-02-04T04:33:39;4.47;;;2.58;;
84849;SDS011;75096;49.576;11.024;2024-02-04T04:34:41;4.50;;;2.63;;
84849;SDS011;75096;49.576;11.024;2024-02-04T04:35:42;4.38;;;2.55;;
84849;SDS011;75096;49.576;11.024;2024-02-04T04:36:44;5.55;;;3.38;;
84849;SDS011;75096;49.576;11.024;2024-02-04T04:37:46;5.00;;;3.13;;
84849;SDS011;75096;49.576;11.024;2024-02-04T04:38:47;5.05;;;2.92;;
84849;SDS011;75096;49.576;11.024;2024-02-04T04:39:51;4.57;;;2.47;;
84849;SDS011;75096;49.576;11.024;2024-02-04T04:40:53;5.18;;;2.90;;
84849;SDS011;75096;49.576;11.024;2024-02-04T04:41:55;4.57;;;2.78;;
84849;SDS011;75096;49.576;11.024;2024-02-04T04:42:56;4.40;;;2.75;;
84849;SDS011;75096;49.576;11.024;2024-02-04T04:43:58;5.35;;;2.10;;
84849;SDS011;75096;49.576;11.024;2024-02-04T04:45:00;4.82;;;1.95;;
84849;SDS011;75096;49.576;11.024;2024-02-04T04:46:02;4.15;;;2.38;;
84849;SDS011;75096;49.576;11.024;2024-02-04T04:47:03;5.15;;;2.50;;
84849;SDS011;75096;49.576;11.024;2024-02-04T04:48:05;4.07;;;2.35;;
84849;SDS011;75096;49.576;11.024;2024-02-04T04:49:09;4.20;;;2.45;;
84849;SDS011;75096;49.576;11.024;2024-02-04T04:50:11;4.90;;;2.47;;
84849;SDS011;75096;49.576;11.024;2024-02-04T04:51:13;3.90;;;2.22;;
84849;SDS011;75096;49.576;11.024;2024-02-04T04:52:14;5.63;;;2.58;;
84849;SDS011;75096;49.576;11.024;2024-02-04T04:53:16;4.25;;;2.55;;
84849;SDS011;75096;49.576;11.024;2024-02-04T04:54:18;4.13;;;2.28;;
84849;SDS011;75096;49.576;11.024;2024-02-04T04:55:20;4.18;;;2.38;;
84849;SDS011;75096;49.576;11.024;2024-02-04T04:56:22;3.92;;;2.53;;
84849;SDS011;75096;49.576;11.024;2024-02-04T04:57:23;3.92;;;2.20;;
84849;SDS011;75096;49.576;11.024;2024-02-04T04:58:25;3.50;;;2.25;;
84849;SDS011;75096;49.576;11.024;2024-02-04T04:59:27;4.25;;;2.20;;
84849;SDS011;75096;49.576;11.024;2024-02-04T05:00:29;3.85;;;2.10;;
84849;SDS011;75096;49.576;11.024;2024-02-04T05:01:30;3.38;;;1.80;;
84849;SDS011;75096;49.576;11.024;2024-02-04T05:02:32;3.97;;;2.00;;
84849;SDS011;75096;49.576;11.024;2024-02-04T05:03:34;3.78;;;2.28;;
84849;SDS011;75096;49.576;11.024;2024-02-04T05:04:36;3.80;;;2.25;;
84849;SDS011;75096;49.576;11.024;2024-02-04T05:05:38;3.80;;;2.05;;
84849;SDS011;75096;49.576;11.024;2024-02-04T05:06:40;3.70;;;1.88;;
84849;SDS011;75096;49.576;11.024;2024-02-04T05:07:42;3.35;;;1.98;;
84849;SDS011;75096;49.576;11.024;2024-02-04T05:08:44;2.95;;;1.80;;
84849;SDS011;75096;49.576;11.024;2024-02-04T05:09:45;3.42;;;2.33;;
84849;SDS011;75096;49.576;11.024;2024-02-04T05:10:47;3.38;;;2.10;;
84849;SDS011;75096;49.576;11.024;2024-02-04T05:11:49;4.13;;;2.00;;
84849;SDS011;75096;49.576;11.024;2024-02-04T05:12:50;3.55;;;1.88;;
84849;SDS011;75096;49.576;11.024;2024-02-04T05:13:52;4.10;;;1.98;;
84849;SDS011;75096;49.576;11.024;2024-02-04T05:14:54;3.67;;;2.13;;
84849;SDS011;75096;49.576;11.024;2024-02-04T05:15:55;2.90;;;1.65;;
84849;SDS011;75096;49.576;11.024;2024-02-04T05:16:57;3.22;;;1.83;;
84849;SDS011;75096;49.576;11.024;2024-02-04T05:17:59;3.53;;;1.77;;
84849;SDS011;75096;49.576;11.024;2024-02-04T05:19:01;2.63;;;1.67;;
84849;SDS011;75096;49.576;11.024;2024-02-04T05:20:03;3.83;;;1.70;;
84849;SDS011;75096;49.576;11.024;2024-02-04T05:21:06;2.75;;;1.60;;
84849;SDS011;75096;49.576;11.024;2024-02-04T05:22:08;2.72;;;1.27;;
84849;SDS011;75096;49.576;11.024;2024-02-04T05:23:09;3.28;;;1.40;;
84849;SDS011;75096;49.576;11.024;2024-02-04T05:24:11;3.05;;;1.42;;
84849;SDS011;75096;49.576;11.024;2024-02-04T05:25:13;2.35;;;1.40;;
84849;SDS011;75096;49.576;11.024;2024-02-04T05:26:17;3.38;;;1.67;;
84849;SDS011;75096;49.576;11.024;2024-02-04T05:27:19;3.30;;;1.45;;
84849;SDS011;75096;49.576;11.024;2024-02-04T05:28:21;2.60;;;1.55;;
84849;SDS011;75096;49.576;11.024;2024-02-04T05:29:23;2.40;;;1.55;;
84849;SDS011;75096;49.576;11.024;2024-02-04T05:30:25;2.58;;;1.42;;
84849;SDS011;75096;49.576;11.024;2024-02-04T05:31:27;2.42;;;1.40;;
84849;SDS011;75096;49.576;11.024;2024-02-04T05:32:28;2.63;;;1.40;;
84849;SDS011;75096;49.576;11.024;2024-02-04T05:33:30;2.58;;;1.60;;
84849;SDS011;75096;49.576;11.024;2024-02-04T05:34:32;2.30;;;1.35;;
84849;SDS011;75096;49.576;11.024;2024-02-04T05:35:35;2.45;;;1.42;;
84849;SDS011;75096;49.576;11.024;2024-02-04T05:36:39;2.60;;;1.40;;
84849;SDS011;75096;49.576;11.024;2024-02-04T05:37:43;2.00;;;1.25;;
84849;SDS011;75096;49.576;11.024;2024-02-04T05:38:45;2.88;;;1.98;;
84849;SDS011;75096;49.576;11.024;2024-02-04T05:39:46;1.67;;;1.17;;
84849;SDS011;75096;49.576;11.024;2024-02-04T05:40:48;1.88;;;1.30;;
84849;SDS011;75096;49.576;11.024;2024-02-04T05:41:50;2.30;;;1.42;;
84849;SDS011;75096;49.576;11.024;2024-02-04T05:42:51;2.70;;;1.40;;
84849;SDS011;75096;49.576;11.024;2024-02-04T05:43:53;2.58;;;1.30;;
84849;SDS011;75096;49.576;11.024;2024-02-04T05:44:55;3.45;;;1.35;;
84849;SDS011;75096;49.576;11.024;2024-02-04T05:45:56;1.70;;;1.08;;
84849;SDS011;75096;49.576;11.024;2024-02-04T05:46:58;2.03;;;1.15;;
84849;SDS011;75096;49.576;11.024;2024-02-04T05:48:00;1.83;;;1.10;;
84849;SDS011;75096;49.576;11.024;2024-02-04T05:49:02;2.08;;;1.02;;
84849;SDS011;75096;49.576;11.024;2024-02-04T05:50:05;1.52;;;1.10;;
84849;SDS011;75096;49.576;11.024;2024-02-04T05:51:07;1.88;;;1.08;;
84849;SDS011;75096;49.576;11.024;2024-02-04T05:52:09;1.73;;;1.17;;
84849;SDS011;75096;49.576;11.024;2024-02-04T05:53:11;1.33;;;1.08;;
84849;SDS011;75096;49.576;11.024;2024-02-04T05:54:12;2.33;;;1.35;;
84849;SDS011;75096;49.576;11.024;2024-02-04T05:55:14;4.30;;;1.20;;
84849;SDS011;75096;49.576;11.024;2024-02-04T05:56:16;1.65;;;1.10;;
84849;SDS011;75096;49.576;11.024;2024-02-04T05:57:18;1.75;;;1.10;;
84849;SDS011;75096;49.576;11.024;2024-02-04T05:58:21;1.55;;;0.63;;
84849;SDS011;75096;49.576;11.024;2024-02-04T05:59:23;1.27;;;0.90;;
84849;SDS011;75096;49.576;11.024;2024-02-04T06:00:25;1.88;;;1.08;;
84849;SDS011;75096;49.576;11.024;2024-02-04T06:01:27;3.35;;;1.27;;
84849;SDS011;75096;49.576;11.024;2024-02-04T06:02:29;1.67;;;1.15;;
84849;SDS011;75096;49.576;11.024;2024-02-04T06:03:31;1.63;;;1.00;;
84849;SDS011;75096;49.576;11.024;2024-02-04T06:04:32;3.53;;;1.20;;
84849;SDS011;75096;49.576;11.024;2024-02-04T06:05:35;1.48;;;0.95;;
84849;SDS011;75096;49.576;11.024;2024-02-04T06:06:36;2.03;;;1.02;;
84849;SDS011;75096;49.576;11.024;2024-02-04T06:07:38;1.02;;;0.95;;
84849;SDS011;75096;49.576;11.024;2024-02-04T06:08:40;1.95;;;1.08;;
84849;SDS011;75096;49.576;11.024;2024-02-04T06:09:42;1.50;;;1.00;;
84849;SDS011;75096;49.576;11.024;2024-02-04T06:10:44;1.45;;;1.00;;
84849;SDS011;75096;49.576;11.024;2024-02-04T06:11:45;1.30;;;1.10;;
84849;SDS011;75096;49.576;11.024;2024-02-04T06:12:50;1.88;;;1.05;;
84849;SDS011;75096;49.576;11.024;2024-02-04T06:13:52;2.10;;;1.00;;
84849;SDS011;75096;49.576;11.024;2024-02-04T06:14:53;1.55;;;1.15;;
84849;SDS011;75096;49.576;11.024;2024-02-04T06:15:55;1.77;;;0.98;;
84849;SDS011;75096;49.576;11.024;2024-02-04T06:16:57;1.92;;;1.02;;
84849;SDS011;75096;49.576;11.024;2024-02-04T06:17:58;2.28;;;1.00;;
84849;SDS011;75096;49.576;11.024;2024-02-04T06:19:00;1.63;;;1.23;;
84849;SDS011;75096;49.576;11.024;2024-02-04T06:20:01;2.13;;;1.30;;
84849;SDS011;75096;49.576;11.024;2024-02-04T06:21:04;1.75;;;1.05;;
84849;SDS011;75096;49.576;11.024;2024-02-04T06:22:06;2.00;;;1.10;;
84849;SDS011;75096;49.576;11.024;2024-02-04T06:23:08;1.45;;;1.00;;
84849;SDS011;75096;49.576;11.024;2024-02-04T06:24:09;1.67;;;1.02;;
84849;SDS011;75096;49.576;11.024;2024-02-04T06:25:11;0.90;;;0.60;;
84849;SDS011;75096;49.576;11.024;2024-02-04T06:26:13;1.48;;;1.02;;
84849;SDS011;75096;49.576;11.024;2024-02-04T06:27:14;3.42;;;1.20;;